createdAt,value
2018-09-04T00:02:25.673Z,14.30
2018-09-04T00:05:30.609Z,13.90
2018-09-04T00:08:35.638Z,14.07
2018-09-04T00:11:40.556Z,16.47
2018-09-04T00:14:45.517Z,14.00
2018-09-04T00:17:50.432Z,14.30
2018-09-04T00:20:55.329Z,13.60
2018-09-04T00:24:00.739Z,15.23
2018-09-04T00:27:05.666Z,13.97
2018-09-04T00:30:10.600Z,15.87
2018-09-04T00:33:15.536Z,15.17
2018-09-04T00:36:20.438Z,15.43
2018-09-04T00:39:25.365Z,15.33
2018-09-04T00:42:30.284Z,17.07
2018-09-04T00:45:35.280Z,14.73
2018-09-04T00:48:40.237Z,15.53
2018-09-04T00:51:45.160Z,16.40
2018-09-04T00:54:50.157Z,14.93
2018-09-04T00:57:55.089Z,15.53
2018-09-04T01:01:00.010Z,15.37
2018-09-04T01:04:05.244Z,19.23
2018-09-04T01:07:10.166Z,16.97
2018-09-04T01:10:15.066Z,16.77
2018-09-04T01:13:20.024Z,15.83
2018-09-04T01:16:24.944Z,13.43
2018-09-04T01:19:29.868Z,14.07
2018-09-04T01:22:34.830Z,15.57
2018-09-04T01:25:39.753Z,14.57
2018-09-04T01:28:44.689Z,16.30
2018-09-04T01:31:49.646Z,15.87
2018-09-04T01:34:54.581Z,15.27
2018-09-04T01:37:59.538Z,13.87
2018-09-04T01:41:04.617Z,15.47
2018-09-04T01:44:09.525Z,16.60
2018-09-04T01:47:14.465Z,15.30
2018-09-04T01:50:19.383Z,15.93
2018-09-04T01:53:24.319Z,16.57
2018-09-04T01:56:29.238Z,18.47
2018-09-04T01:59:34.172Z,15.90
2018-09-04T02:02:39.121Z,18.07
2018-09-04T02:05:44.090Z,14.93
2018-09-04T02:08:49.006Z,17.33
2018-09-04T02:11:54.165Z,16.27
2018-09-04T02:14:59.094Z,17.90
2018-09-04T02:18:04.273Z,17.97
2018-09-04T02:21:09.225Z,17.30
2018-09-04T02:24:14.169Z,18.13
2018-09-04T02:27:25.254Z,15.10
2018-09-04T02:30:30.163Z,17.53
2018-09-04T02:33:35.261Z,15.43
2018-09-04T02:36:40.193Z,16.17
2018-09-04T02:39:45.109Z,17.90
2018-09-04T02:42:50.081Z,16.67
2018-09-04T02:45:55.002Z,17.63
2018-09-04T02:48:59.936Z,15.30
2018-09-04T02:52:05.395Z,16.50
2018-09-04T02:55:10.927Z,15.73
2018-09-04T02:58:15.910Z,17.53
2018-09-04T03:01:20.873Z,17.23
2018-09-04T03:04:25.784Z,16.27
2018-09-04T03:07:30.716Z,16.67
2018-09-04T03:10:35.639Z,16.23
2018-09-04T03:13:40.592Z,17.10
2018-09-04T03:16:45.524Z,18.27
2018-09-04T03:19:50.473Z,17.27
2018-09-04T03:22:55.668Z,16.73
2018-09-04T03:26:00.640Z,16.30
2018-09-04T03:29:05.578Z,14.30
2018-09-04T03:32:10.504Z,19.03
2018-09-04T03:35:15.431Z,19.37
2018-09-04T03:38:20.382Z,17.90
2018-09-04T03:41:25.297Z,17.50
2018-09-04T03:44:30.323Z,18.80
2018-09-04T03:47:35.149Z,16.10
2018-09-04T03:50:40.300Z,15.83
2018-09-04T03:53:45.255Z,16.77
2018-09-04T03:56:50.187Z,17.00
2018-09-04T03:59:55.135Z,18.97
2018-09-04T04:03:00.058Z,20.33
2018-09-04T04:06:05.061Z,17.30
2018-09-04T04:09:10.904Z,27.07
2018-09-04T04:12:15.837Z,24.37
2018-09-04T04:15:20.773Z,19.00
2018-09-04T04:18:25.718Z,15.40
2018-09-04T04:21:30.658Z,15.40
2018-09-04T04:24:35.602Z,19.13
2018-09-04T04:27:40.521Z,16.50
2018-09-04T04:30:45.432Z,17.37
2018-09-04T04:33:50.342Z,16.67
2018-09-04T04:36:55.236Z,16.53
2018-09-04T04:40:00.225Z,21.33
2018-09-04T04:43:05.117Z,17.83
2018-09-04T04:46:10.025Z,21.77
2018-09-04T04:49:14.960Z,18.13
2018-09-04T04:52:19.861Z,16.63
2018-09-04T04:55:24.809Z,18.27
2018-09-04T04:58:29.749Z,16.77
2018-09-04T05:01:34.703Z,18.20
2018-09-04T05:04:39.613Z,17.27
2018-09-04T05:07:44.537Z,17.07
2018-09-04T05:10:49.428Z,16.27
2018-09-04T05:13:54.385Z,17.17
2018-09-04T05:16:59.347Z,15.57
2018-09-04T05:20:04.569Z,18.20
2018-09-04T05:23:09.553Z,19.53
2018-09-04T05:26:14.475Z,16.47
2018-09-04T05:29:19.434Z,14.67
2018-09-04T05:32:31.965Z,16.80
2018-09-04T05:35:43.476Z,16.23
2018-09-04T05:38:48.415Z,18.90
2018-09-04T05:41:53.424Z,17.77
2018-09-04T05:44:58.408Z,15.90
2018-09-04T05:48:18.390Z,16.83
2018-09-04T05:51:23.322Z,16.30
2018-09-04T05:54:28.292Z,14.43
2018-09-04T05:57:33.233Z,15.87
2018-09-04T06:00:52.429Z,17.67
2018-09-04T06:03:57.389Z,14.03
2018-09-04T06:07:02.324Z,17.73
2018-09-04T06:10:07.388Z,17.63
2018-09-04T06:13:12.310Z,15.70
2018-09-04T06:16:17.390Z,17.27
2018-09-04T06:19:22.354Z,17.40
2018-09-04T06:22:27.341Z,16.33
2018-09-04T06:25:32.282Z,15.53
2018-09-04T06:28:37.234Z,16.90
2018-09-04T06:31:42.151Z,15.87
2018-09-04T06:34:47.077Z,16.80
2018-09-04T06:37:51.995Z,16.17
2018-09-04T06:40:56.923Z,14.63
2018-09-04T06:44:01.873Z,16.27
2018-09-04T06:47:06.816Z,16.20
2018-09-04T06:50:11.783Z,21.67
2018-09-04T06:53:16.727Z,18.30
2018-09-04T06:56:21.703Z,17.43
2018-09-04T06:59:26.689Z,15.53
2018-09-04T07:02:31.613Z,14.93
2018-09-04T07:05:36.569Z,16.07
2018-09-04T07:08:41.501Z,20.17
2018-09-04T07:11:46.442Z,17.20
2018-09-04T07:14:51.405Z,14.57
2018-09-04T07:17:56.445Z,18.07
2018-09-04T07:21:01.565Z,22.83
2018-09-04T07:24:06.486Z,19.47
2018-09-04T07:27:11.458Z,18.60
2018-09-04T07:30:16.403Z,20.87
2018-09-04T07:33:21.638Z,18.23
2018-09-04T07:36:26.604Z,20.73
2018-09-04T07:39:31.555Z,26.27
2018-09-04T07:42:36.550Z,23.00
2018-09-04T07:45:41.544Z,23.43
2018-09-04T07:48:46.531Z,23.53
2018-09-04T07:51:51.855Z,26.60
2018-09-04T07:54:56.949Z,26.30
2018-09-04T07:58:01.923Z,24.77
2018-09-04T08:01:06.969Z,28.57
2018-09-04T08:04:11.898Z,38.50
2018-09-04T08:07:16.899Z,35.87
2018-09-04T08:10:21.842Z,33.37
2018-09-04T08:13:26.781Z,27.07
2018-09-04T08:16:31.734Z,24.67
2018-09-04T08:19:36.657Z,27.17
2018-09-04T08:22:41.624Z,31.03
2018-09-04T08:25:46.559Z,26.97
2018-09-04T08:28:51.497Z,25.23
2018-09-04T08:31:56.441Z,26.50
2018-09-04T08:35:02.164Z,27.20
2018-09-04T08:38:07.100Z,23.50
2018-09-04T08:41:12.010Z,22.60
2018-09-04T08:44:16.940Z,21.27
2018-09-04T08:47:21.970Z,21.17
2018-09-04T08:50:27.581Z,19.10
2018-09-04T08:53:32.504Z,20.17
2018-09-04T08:56:37.409Z,17.27
2018-09-04T08:59:42.405Z,17.77
2018-09-04T09:02:47.319Z,18.43
2018-09-04T09:05:52.489Z,18.57
2018-09-04T09:08:57.426Z,18.00
2018-09-04T09:12:02.421Z,16.87
2018-09-04T09:15:07.401Z,13.20
2018-09-04T09:18:12.448Z,11.87
2018-09-04T09:21:17.437Z,13.17
2018-09-04T09:24:22.379Z,13.60
2018-09-04T09:27:27.450Z,12.67
2018-09-04T09:30:33.056Z,14.87
2018-09-04T09:33:38.001Z,11.77
2018-09-04T09:36:43.014Z,11.37
2018-09-04T09:39:47.937Z,10.97
2018-09-04T09:42:52.874Z,10.30
2018-09-04T09:45:57.880Z,10.00
2018-09-04T09:49:02.848Z,8.40
2018-09-04T09:52:07.805Z,9.93
2018-09-04T09:55:12.740Z,10.03
2018-09-04T09:58:17.709Z,11.43
2018-09-04T10:01:28.458Z,10.57
2018-09-04T10:04:33.407Z,9.30
2018-09-04T10:07:38.477Z,10.20
2018-09-04T10:10:43.479Z,9.07
2018-09-04T10:13:49.013Z,9.10
2018-09-04T10:16:53.993Z,8.77
2018-09-04T10:19:59.128Z,9.57
2018-09-04T10:23:04.069Z,8.83
2018-09-04T10:26:09.080Z,9.07
2018-09-04T10:29:14.053Z,7.47
2018-09-04T10:32:19.034Z,9.03
2018-09-04T10:35:24.073Z,7.80
2018-09-04T10:38:29.076Z,7.37
2018-09-04T10:41:34.051Z,6.90
2018-09-04T10:44:39.070Z,7.10
2018-09-04T10:47:44.057Z,6.40
2018-09-04T10:50:49.057Z,6.33
2018-09-04T10:53:54.025Z,6.47
2018-09-04T10:56:59.023Z,6.50
2018-09-04T11:00:04.062Z,7.40
2018-09-04T11:03:09.069Z,8.47
2018-09-04T11:06:14.028Z,7.20
2018-09-04T11:09:19.039Z,7.10
2018-09-04T11:12:23.969Z,8.43
2018-09-04T11:15:28.942Z,6.90
2018-09-04T11:18:33.880Z,7.60
2018-09-04T11:21:38.978Z,6.60
2018-09-04T11:24:43.984Z,7.03
2018-09-04T11:27:48.932Z,6.90
2018-09-04T11:30:53.905Z,6.80
2018-09-04T11:33:58.866Z,7.60
2018-09-04T11:37:03.916Z,6.63
2018-09-04T11:40:09.147Z,6.97
2018-09-04T11:43:14.094Z,6.60
2018-09-04T11:46:19.044Z,6.10
2018-09-04T11:49:24.005Z,6.87
2018-09-04T11:52:29.098Z,6.60
2018-09-04T11:55:33.985Z,6.40
2018-09-04T11:58:39.124Z,10.23
2018-09-04T12:01:47.597Z,6.57
2018-09-04T12:04:52.583Z,6.77
2018-09-04T12:07:57.641Z,6.90
2018-09-04T12:11:02.616Z,6.60
2018-09-04T12:14:07.607Z,7.20
2018-09-04T12:17:12.649Z,6.17
2018-09-04T12:20:34.259Z,7.37
2018-09-04T12:23:39.600Z,7.10
2018-09-04T12:26:44.582Z,6.17
2018-09-04T12:29:49.529Z,6.87
2018-09-04T12:32:54.572Z,6.23
2018-09-04T12:35:59.528Z,8.73
2018-09-04T12:39:05.330Z,8.33
2018-09-04T12:42:10.305Z,6.57
2018-09-04T12:45:15.261Z,6.60
2018-09-04T12:48:24.750Z,5.77
2018-09-04T12:51:29.732Z,5.90
2018-09-04T12:54:34.736Z,6.03
2018-09-04T12:57:39.639Z,6.37
2018-09-04T13:00:45.594Z,6.90
2018-09-04T13:03:50.544Z,8.10
2018-09-04T13:06:55.973Z,5.80
2018-09-04T13:10:01.633Z,5.67
2018-09-04T13:13:06.578Z,5.70
2018-09-04T13:16:11.599Z,5.37
2018-09-04T13:19:16.485Z,6.43
2018-09-04T13:22:21.482Z,5.13
2018-09-04T13:25:26.424Z,5.57
2018-09-04T13:28:32.181Z,4.70
2018-09-04T13:31:37.082Z,5.20
2018-09-04T13:34:41.991Z,5.07
2018-09-04T13:37:46.900Z,4.87
2018-09-04T13:40:57.597Z,5.10
2018-09-04T13:44:02.562Z,4.93
2018-09-04T13:47:07.509Z,4.90
2018-09-04T13:50:12.505Z,5.37
2018-09-04T13:53:17.457Z,4.70
2018-09-04T13:56:22.385Z,5.43
2018-09-04T13:59:27.295Z,5.17
2018-09-04T14:02:32.281Z,4.70
2018-09-04T14:05:37.237Z,4.87
2018-09-04T14:08:42.197Z,5.10
2018-09-04T14:11:47.141Z,5.40
2018-09-04T14:14:52.059Z,5.10
2018-09-04T14:17:57.005Z,4.23
2018-09-04T14:21:02.168Z,4.77
2018-09-04T14:24:07.057Z,4.67
2018-09-04T14:27:12.005Z,4.80
2018-09-04T14:30:16.999Z,4.40
2018-09-04T14:33:21.936Z,4.70
2018-09-04T14:36:26.987Z,4.90
2018-09-04T14:39:31.862Z,5.10
2018-09-04T14:42:36.822Z,5.20
2018-09-04T14:45:41.828Z,4.50
2018-09-04T14:48:46.809Z,5.17
2018-09-04T14:51:51.761Z,4.90
2018-09-04T14:54:56.809Z,4.70
2018-09-04T14:58:01.761Z,5.27
2018-09-04T15:01:06.737Z,4.13
2018-09-04T15:04:11.713Z,4.90
2018-09-04T15:07:16.723Z,9.30
2018-09-04T15:10:21.636Z,4.40
2018-09-04T15:13:26.599Z,4.53
2018-09-04T15:16:31.611Z,4.80
2018-09-04T15:19:36.594Z,4.33
2018-09-04T15:22:41.587Z,5.60
2018-09-04T15:25:46.571Z,4.63
2018-09-04T15:28:51.562Z,4.73
2018-09-04T15:31:56.569Z,4.70
2018-09-04T15:35:01.528Z,5.27
2018-09-04T15:38:06.503Z,4.83
2018-09-04T15:41:11.452Z,5.53
2018-09-04T15:44:16.456Z,6.83
2018-09-04T15:47:21.501Z,7.53
2018-09-04T15:50:26.437Z,7.20
2018-09-04T15:53:31.382Z,6.77
2018-09-04T15:56:36.348Z,6.07
2018-09-04T15:59:41.293Z,5.97
2018-09-04T16:02:46.260Z,5.27
2018-09-04T16:05:51.217Z,5.73
2018-09-04T16:08:56.315Z,5.87
2018-09-04T16:12:01.399Z,6.57
2018-09-04T16:15:06.397Z,6.73
2018-09-04T16:18:11.445Z,6.37
2018-09-04T16:21:16.571Z,7.33
2018-09-04T16:24:21.602Z,6.50
2018-09-04T16:27:26.504Z,6.83
2018-09-04T16:30:31.420Z,8.10
2018-09-04T16:33:36.449Z,8.20
2018-09-04T16:36:41.404Z,8.67
2018-09-04T16:39:46.345Z,8.20
2018-09-04T16:42:52.793Z,9.93
2018-09-04T16:45:58.813Z,8.53
2018-09-04T16:49:04.137Z,10.40
2018-09-04T16:52:09.599Z,8.20
2018-09-04T16:55:14.549Z,7.87
2018-09-04T16:58:19.761Z,8.30
2018-09-04T17:01:24.729Z,8.80
2018-09-04T17:04:29.862Z,9.00
2018-09-04T17:07:34.873Z,8.70
2018-09-04T17:10:40.348Z,8.73
2018-09-04T17:13:45.481Z,9.23
2018-09-04T17:16:51.066Z,7.63
2018-09-04T17:19:56.676Z,7.93
2018-09-04T17:23:01.657Z,8.20
2018-09-04T17:26:06.708Z,8.13
2018-09-04T17:29:11.661Z,8.57
2018-09-04T17:32:16.739Z,10.17
2018-09-04T17:35:22.713Z,10.53
2018-09-04T17:38:27.971Z,14.27
2018-09-04T17:41:33.571Z,36.03
2018-09-04T17:44:38.966Z,50.40
2018-09-04T17:47:44.449Z,26.53
2018-09-04T17:50:49.418Z,10.20
2018-09-04T17:53:54.769Z,9.13
2018-09-04T17:57:00.134Z,9.40
2018-09-04T18:00:06.237Z,9.27
2018-09-04T18:03:11.670Z,8.40
2018-09-04T18:06:16.661Z,10.17
2018-09-04T18:09:21.692Z,27.53
2018-09-04T18:12:26.776Z,13.80
2018-09-04T18:15:31.858Z,12.00
2018-09-04T18:18:37.129Z,14.80
2018-09-04T18:21:42.397Z,9.47
2018-09-04T18:24:47.542Z,11.17
2018-09-04T18:27:52.491Z,12.67
2018-09-04T18:30:57.476Z,9.20
2018-09-04T18:34:03.827Z,9.63
2018-09-04T18:37:08.837Z,9.43
2018-09-04T18:40:13.990Z,10.77
2018-09-04T18:43:18.918Z,9.23
2018-09-04T18:46:24.341Z,8.50
2018-09-04T18:49:29.267Z,8.50
2018-09-04T18:52:34.351Z,8.20
2018-09-04T18:55:39.330Z,8.77
2018-09-04T18:58:44.258Z,9.30
2018-09-04T19:01:49.725Z,9.77
2018-09-04T19:04:55.102Z,11.87
2018-09-04T19:08:00.313Z,11.57
2018-09-04T19:11:05.449Z,10.57
2018-09-04T19:14:10.816Z,12.87
2018-09-04T19:17:15.738Z,9.87
2018-09-04T19:20:21.025Z,12.53
2018-09-04T19:23:25.935Z,15.43
2018-09-04T19:26:31.060Z,16.60
2018-09-04T19:29:36.461Z,11.13
2018-09-04T19:32:41.666Z,9.13
2018-09-04T19:35:46.598Z,9.70
2018-09-04T19:38:51.566Z,9.00
2018-09-04T19:41:56.515Z,9.97
2018-09-04T19:45:01.841Z,10.20
2018-09-04T19:48:06.899Z,9.73
2018-09-04T19:51:11.942Z,8.47
2018-09-04T19:54:17.258Z,9.30
2018-09-04T19:57:22.358Z,10.50
2018-09-04T20:00:27.697Z,11.00
2018-09-04T20:03:32.971Z,10.30
2018-09-04T20:06:38.219Z,9.03
2018-09-04T20:09:43.189Z,9.03
2018-09-04T20:12:48.585Z,10.23
2018-09-04T20:15:53.536Z,10.33
2018-09-04T20:18:58.957Z,9.97
2018-09-04T20:22:05.826Z,11.97
2018-09-04T20:25:12.197Z,9.50
2018-09-04T20:28:17.178Z,10.37
2018-09-04T20:31:22.138Z,10.57
2018-09-04T20:34:27.356Z,13.10
2018-09-04T20:37:32.814Z,9.70
2018-09-04T20:40:37.946Z,11.10
2018-09-04T20:43:43.393Z,12.17
2018-09-04T20:46:48.419Z,11.67
2018-09-04T20:49:53.464Z,11.20
2018-09-04T20:52:58.439Z,13.13
2018-09-04T20:56:03.405Z,10.53
2018-09-04T20:59:20.217Z,11.00
2018-09-04T21:02:36.849Z,10.67
2018-09-04T21:05:53.509Z,10.53
2018-09-04T21:09:05.084Z,13.27
2018-09-04T21:12:10.040Z,12.80
2018-09-04T21:15:14.966Z,12.30
2018-09-04T21:18:19.897Z,11.13
2018-09-04T21:21:24.852Z,12.23
2018-09-04T21:24:29.841Z,14.80
2018-09-04T21:27:34.794Z,13.43
2018-09-04T21:30:39.763Z,11.93
2018-09-04T21:33:44.717Z,12.60
2018-09-04T21:36:49.687Z,11.07
2018-09-04T21:39:54.622Z,12.93
2018-09-04T21:42:59.565Z,16.50
2018-09-04T21:46:04.620Z,14.03
2018-09-04T21:49:09.576Z,14.57
2018-09-04T21:52:14.508Z,12.80
2018-09-04T21:55:19.447Z,15.87
2018-09-04T22:02:10.862Z,15.10
2018-09-04T22:05:15.884Z,18.53
2018-09-04T22:08:20.848Z,15.50
2018-09-04T22:11:25.820Z,14.47
2018-09-04T22:14:30.788Z,17.17
2018-09-04T22:17:36.502Z,15.57
2018-09-04T22:20:41.445Z,11.67
2018-09-04T22:23:46.372Z,11.47
2018-09-04T22:26:51.306Z,13.77
2018-09-04T22:29:56.220Z,13.37
2018-09-04T22:33:01.141Z,18.43
2018-09-04T22:36:06.329Z,13.40
2018-09-04T22:39:11.259Z,16.07
2018-09-04T22:42:16.165Z,12.30
2018-09-04T22:45:21.096Z,15.70
2018-09-04T22:48:26.004Z,17.23
2018-09-04T22:51:37.452Z,14.90
2018-09-04T22:54:42.389Z,10.80
2018-09-04T22:57:47.313Z,10.73
2018-09-04T23:00:52.280Z,11.63
2018-09-04T23:03:57.637Z,12.50
2018-09-04T23:07:02.595Z,14.73
2018-09-04T23:10:07.660Z,12.13
2018-09-04T23:13:12.585Z,15.17
2018-09-04T23:16:17.548Z,12.50
2018-09-04T23:19:22.457Z,11.60
2018-09-04T23:22:27.403Z,11.80
2018-09-04T23:25:32.321Z,11.03
2018-09-04T23:28:37.245Z,13.20
2018-09-04T23:31:42.152Z,13.63
2018-09-04T23:34:47.065Z,11.23
2018-09-04T23:37:51.980Z,12.67
2018-09-04T23:40:56.897Z,12.03
2018-09-04T23:44:01.876Z,12.20
2018-09-04T23:47:06.813Z,11.37
2018-09-04T23:50:11.748Z,19.23
2018-09-04T23:53:16.677Z,11.50
2018-09-04T23:56:21.624Z,11.37
2018-09-04T23:59:26.537Z,11.37
